sensor_id;sensor_type;location;lat;lon;timestamp;P1;P2;P0
54021;PMS7003;39936;51.058;17.220;2023-03-01T00:01:22;81;62;38
54021;PMS7003;39936;51.058;17.220;2023-03-01T00:04:47;77;58;35
54021;PMS7003;39936;51.058;17.220;2023-03-01T00:08:44;82;63;38
54021;PMS7003;39936;51.058;17.220;2023-03-01T00:12:18;86;66;41
54021;PMS7003;39936;51.058;17.220;2023-03-01T00:15:40;83;63;39
54021;PMS7003;39936;51.058;17.220;2023-03-01T00:19:13;79;57;38
54021;PMS7003;39936;51.058;17.220;2023-03-01T00:22:51;91;67;43
54021;PMS7003;39936;51.058;17.220;2023-03-01T00:26:13;89;61;38
54021;PMS7003;39936;51.058;17.220;2023-03-01T00:29:55;83;63;39
54021;PMS7003;39936;51.058;17.220;2023-03-01T00:33:42;80;61;39
54021;PMS7003;39936;51.058;17.220;2023-03-01T00:37:09;84;62;37
54021;PMS7003;39936;51.058;17.220;2023-03-01T00:41:15;82;61;39
54021;PMS7003;39936;51.058;17.220;2023-03-01T00:44:57;82;62;38
54021;PMS7003;39936;51.058;17.220;2023-03-01T00:48:40;90;69;43
54021;PMS7003;39936;51.058;17.220;2023-03-01T00:52:52;78;58;36
54021;PMS7003;39936;51.058;17.220;2023-03-01T00:57:09;74;56;35
54021;PMS7003;39936;51.058;17.220;2023-03-01T01:00:51;82;61;38
54021;PMS7003;39936;51.058;17.220;2023-03-01T01:04:18;79;59;38
54021;PMS7003;39936;51.058;17.220;2023-03-01T01:07:59;81;59;35
54021;PMS7003;39936;51.058;17.220;2023-03-01T01:11:27;79;61;37
54021;PMS7003;39936;51.058;17.220;2023-03-01T01:15:43;78;58;34
54021;PMS7003;39936;51.058;17.220;2023-03-01T01:19:24;72;56;35
54021;PMS7003;39936;51.058;17.220;2023-03-01T01:27:43;81;60;38
54021;PMS7003;39936;51.058;17.220;2023-03-01T01:31:58;79;59;37
54021;PMS7003;39936;51.058;17.220;2023-03-01T01:35:34;80;60;37
54021;PMS7003;39936;51.058;17.220;2023-03-01T01:39:18;74;55;34
54021;PMS7003;39936;51.058;17.220;2023-03-01T01:42:40;80;60;37
54021;PMS7003;39936;51.058;17.220;2023-03-01T01:50:26;80;61;38
54021;PMS7003;39936;51.058;17.220;2023-03-01T01:54:20;88;67;41
54021;PMS7003;39936;51.058;17.220;2023-03-01T01:58:08;81;62;40
54021;PMS7003;39936;51.058;17.220;2023-03-01T02:05:42;83;61;38
54021;PMS7003;39936;51.058;17.220;2023-03-01T02:09:43;95;67;42
54021;PMS7003;39936;51.058;17.220;2023-03-01T02:13:27;86;65;41
54021;PMS7003;39936;51.058;17.220;2023-03-01T02:16:50;81;62;38
54021;PMS7003;39936;51.058;17.220;2023-03-01T02:28:30;82;58;38
54021;PMS7003;39936;51.058;17.220;2023-03-01T02:32:51;75;55;31
54021;PMS7003;39936;51.058;17.220;2023-03-01T02:37:08;77;58;36
54021;PMS7003;39936;51.058;17.220;2023-03-01T02:45:05;83;61;39
54021;PMS7003;39936;51.058;17.220;2023-03-01T02:48:25;85;63;40
54021;PMS7003;39936;51.058;17.220;2023-03-01T02:52:17;86;65;40
54021;PMS7003;39936;51.058;17.220;2023-03-01T02:56:21;86;64;39
54021;PMS7003;39936;51.058;17.220;2023-03-01T02:59:59;85;62;36
54021;PMS7003;39936;51.058;17.220;2023-03-01T03:04:19;89;64;40
54021;PMS7003;39936;51.058;17.220;2023-03-01T03:08:04;84;62;40
54021;PMS7003;39936;51.058;17.220;2023-03-01T03:11:54;83;62;39
54021;PMS7003;39936;51.058;17.220;2023-03-01T03:15:31;88;63;40
54021;PMS7003;39936;51.058;17.220;2023-03-01T03:19:16;88;65;41
54021;PMS7003;39936;51.058;17.220;2023-03-01T03:23:22;87;65;41
54021;PMS7003;39936;51.058;17.220;2023-03-01T03:26:50;86;64;40
54021;PMS7003;39936;51.058;17.220;2023-03-01T03:30:54;90;66;42
54021;PMS7003;39936;51.058;17.220;2023-03-01T03:34:39;87;64;40
54021;PMS7003;39936;51.058;17.220;2023-03-01T03:38:17;81;60;37
54021;PMS7003;39936;51.058;17.220;2023-03-01T03:41:46;87;65;40
54021;PMS7003;39936;51.058;17.220;2023-03-01T03:45:13;85;66;41
54021;PMS7003;39936;51.058;17.220;2023-03-01T03:48:42;89;67;42
54021;PMS7003;39936;51.058;17.220;2023-03-01T03:56:37;86;61;39
54021;PMS7003;39936;51.058;17.220;2023-03-01T04:00:00;88;66;40
54021;PMS7003;39936;51.058;17.220;2023-03-01T04:03:55;87;65;40
54021;PMS7003;39936;51.058;17.220;2023-03-01T04:07:34;87;66;40
54021;PMS7003;39936;51.058;17.220;2023-03-01T04:11:24;92;68;39
54021;PMS7003;39936;51.058;17.220;2023-03-01T04:15:05;85;64;39
54021;PMS7003;39936;51.058;17.220;2023-03-01T04:23:10;84;62;37
54021;PMS7003;39936;51.058;17.220;2023-03-01T04:30:30;85;62;37
54021;PMS7003;39936;51.058;17.220;2023-03-01T04:34:02;86;62;37
54021;PMS7003;39936;51.058;17.220;2023-03-01T04:37:51;83;61;37
54021;PMS7003;39936;51.058;17.220;2023-03-01T04:41:46;83;62;39
54021;PMS7003;39936;51.058;17.220;2023-03-01T04:45:29;94;66;41
54021;PMS7003;39936;51.058;17.220;2023-03-01T04:49:28;82;63;39
54021;PMS7003;39936;51.058;17.220;2023-03-01T04:53:48;88;66;42
54021;PMS7003;39936;51.058;17.220;2023-03-01T04:57:33;79;62;38
54021;PMS7003;39936;51.058;17.220;2023-03-01T05:01:19;91;67;41
54021;PMS7003;39936;51.058;17.220;2023-03-01T05:04:43;82;63;38
54021;PMS7003;39936;51.058;17.220;2023-03-01T05:08:32;89;67;41
54021;PMS7003;39936;51.058;17.220;2023-03-01T05:12:23;88;65;40
54021;PMS7003;39936;51.058;17.220;2023-03-01T05:15:53;89;65;40
54021;PMS7003;39936;51.058;17.220;2023-03-01T05:19:37;81;61;37
54021;PMS7003;39936;51.058;17.220;2023-03-01T05:23:55;82;61;39
54021;PMS7003;39936;51.058;17.220;2023-03-01T05:27:40;81;60;37
54021;PMS7003;39936;51.058;17.220;2023-03-01T05:31:26;89;64;39
54021;PMS7003;39936;51.058;17.220;2023-03-01T05:35:02;89;66;40
54021;PMS7003;39936;51.058;17.220;2023-03-01T05:38:55;81;63;39
54021;PMS7003;39936;51.058;17.220;2023-03-01T05:42:20;83;61;37
54021;PMS7003;39936;51.058;17.220;2023-03-01T05:49:40;122;98;58
54021;PMS7003;39936;51.058;17.220;2023-03-01T05:53:01;94;68;42
54021;PMS7003;39936;51.058;17.220;2023-03-01T05:56:50;98;71;43
54021;PMS7003;39936;51.058;17.220;2023-03-01T06:00:35;108;81;46
54021;PMS7003;39936;51.058;17.220;2023-03-01T06:04:20;84;65;39
54021;PMS7003;39936;51.058;17.220;2023-03-01T06:08:09;98;75;45
54021;PMS7003;39936;51.058;17.220;2023-03-01T06:12:03;87;64;40
54021;PMS7003;39936;51.058;17.220;2023-03-01T06:15:25;85;63;40
54021;PMS7003;39936;51.058;17.220;2023-03-01T06:18:46;102;77;44
54021;PMS7003;39936;51.058;17.220;2023-03-01T06:22:31;106;82;49
54021;PMS7003;39936;51.058;17.220;2023-03-01T06:25:56;106;85;50
54021;PMS7003;39936;51.058;17.220;2023-03-01T06:29:43;104;83;46
54021;PMS7003;39936;51.058;17.220;2023-03-01T06:33:46;99;77;47
54021;PMS7003;39936;51.058;17.220;2023-03-01T06:37:32;92;68;42
54021;PMS7003;39936;51.058;17.220;2023-03-01T06:41:10;97;71;43
54021;PMS7003;39936;51.058;17.220;2023-03-01T06:44:56;92;66;41
54021;PMS7003;39936;51.058;17.220;2023-03-01T06:48:46;92;69;43
54021;PMS7003;39936;51.058;17.220;2023-03-01T06:52:10;90;66;40
54021;PMS7003;39936;51.058;17.220;2023-03-01T06:55:32;89;65;40
54021;PMS7003;39936;51.058;17.220;2023-03-01T06:59:26;90;67;39
54021;PMS7003;39936;51.058;17.220;2023-03-01T07:03:06;92;68;43
54021;PMS7003;39936;51.058;17.220;2023-03-01T07:06:33;96;73;45
54021;PMS7003;39936;51.058;17.220;2023-03-01T07:10:03;98;70;41
54021;PMS7003;39936;51.058;17.220;2023-03-01T07:14:15;99;74;45
54021;PMS7003;39936;51.058;17.220;2023-03-01T07:17:54;85;61;35
54021;PMS7003;39936;51.058;17.220;2023-03-01T07:21:49;88;67;40
54021;PMS7003;39936;51.058;17.220;2023-03-01T07:25:26;96;72;42
54021;PMS7003;39936;51.058;17.220;2023-03-01T07:28:48;83;65;36
54021;PMS7003;39936;51.058;17.220;2023-03-01T07:32:17;92;69;42
54021;PMS7003;39936;51.058;17.220;2023-03-01T07:35:44;89;67;42
54021;PMS7003;39936;51.058;17.220;2023-03-01T07:39:21;84;61;38
54021;PMS7003;39936;51.058;17.220;2023-03-01T07:42:49;89;66;40
54021;PMS7003;39936;51.058;17.220;2023-03-01T07:46:31;81;60;38
54021;PMS7003;39936;51.058;17.220;2023-03-01T07:49:53;84;64;40
54021;PMS7003;39936;51.058;17.220;2023-03-01T07:53:12;82;60;38
54021;PMS7003;39936;51.058;17.220;2023-03-01T07:56:37;85;60;38
54021;PMS7003;39936;51.058;17.220;2023-03-01T07:59:59;82;60;39
54021;PMS7003;39936;51.058;17.220;2023-03-01T08:03:43;80;60;38
54021;PMS7003;39936;51.058;17.220;2023-03-01T08:07:37;79;61;40
54021;PMS7003;39936;51.058;17.220;2023-03-01T08:11:04;88;64;38
54021;PMS7003;39936;51.058;17.220;2023-03-01T08:14:47;89;64;39
54021;PMS7003;39936;51.058;17.220;2023-03-01T08:18:09;76;57;37
54021;PMS7003;39936;51.058;17.220;2023-03-01T08:21:47;77;58;38
54021;PMS7003;39936;51.058;17.220;2023-03-01T08:25:45;82;63;40
54021;PMS7003;39936;51.058;17.220;2023-03-01T08:29:09;76;58;37
54021;PMS7003;39936;51.058;17.220;2023-03-01T08:32:37;79;58;35
54021;PMS7003;39936;51.058;17.220;2023-03-01T08:36:47;76;57;36
54021;PMS7003;39936;51.058;17.220;2023-03-01T08:40:41;74;57;36
54021;PMS7003;39936;51.058;17.220;2023-03-01T08:44:18;67;52;33
54021;PMS7003;39936;51.058;17.220;2023-03-01T08:47:41;59;42;23
54021;PMS7003;39936;51.058;17.220;2023-03-01T08:51:07;58;48;29
54021;PMS7003;39936;51.058;17.220;2023-03-01T08:54:38;63;50;32
54021;PMS7003;39936;51.058;17.220;2023-03-01T08:58:00;56;45;28
54021;PMS7003;39936;51.058;17.220;2023-03-01T09:02:19;61;43;27
54021;PMS7003;39936;51.058;17.220;2023-03-01T09:05:44;54;39;24
54021;PMS7003;39936;51.058;17.220;2023-03-01T09:09:22;50;37;24
54021;PMS7003;39936;51.058;17.220;2023-03-01T09:12:41;53;39;23
54021;PMS7003;39936;51.058;17.220;2023-03-01T09:16:04;55;40;26
54021;PMS7003;39936;51.058;17.220;2023-03-01T09:19:56;43;33;20
54021;PMS7003;39936;51.058;17.220;2023-03-01T09:23:19;37;28;18
54021;PMS7003;39936;51.058;17.220;2023-03-01T09:27:19;32;28;16
54021;PMS7003;39936;51.058;17.220;2023-03-01T09:34:28;48;39;23
54021;PMS7003;39936;51.058;17.220;2023-03-01T09:37:47;47;40;23
54021;PMS7003;39936;51.058;17.220;2023-03-01T09:41:33;49;34;22
54021;PMS7003;39936;51.058;17.220;2023-03-01T09:45:04;39;35;20
54021;PMS7003;39936;51.058;17.220;2023-03-01T09:48:51;43;35;22
54021;PMS7003;39936;51.058;17.220;2023-03-01T09:56:22;46;35;21
54021;PMS7003;39936;51.058;17.220;2023-03-01T10:11:21;40;32;17
54021;PMS7003;39936;51.058;17.220;2023-03-01T10:15:20;38;33;18
54021;PMS7003;39936;51.058;17.220;2023-03-01T10:18:55;39;30;18
54021;PMS7003;39936;51.058;17.220;2023-03-01T10:22:21;39;32;20
54021;PMS7003;39936;51.058;17.220;2023-03-01T10:37:20;38;32;21
54021;PMS7003;39936;51.058;17.220;2023-03-01T10:41:08;35;31;19
54021;PMS7003;39936;51.058;17.220;2023-03-01T10:52:41;41;34;22
54021;PMS7003;39936;51.058;17.220;2023-03-01T10:56:47;46;39;23
54021;PMS7003;39936;51.058;17.220;2023-03-01T11:07:29;41;38;26
54021;PMS7003;39936;51.058;17.220;2023-03-01T11:24:03;40;32;19
54021;PMS7003;39936;51.058;17.220;2023-03-01T11:27:57;33;27;18
54021;PMS7003;39936;51.058;17.220;2023-03-01T11:31:56;38;35;21
54021;PMS7003;39936;51.058;17.220;2023-03-01T11:39:26;32;25;16
54021;PMS7003;39936;51.058;17.220;2023-03-01T11:50:34;30;22;15
54021;PMS7003;39936;51.058;17.220;2023-03-01T11:53:58;44;33;20
54021;PMS7003;39936;51.058;17.220;2023-03-01T11:57:35;36;27;16
54021;PMS7003;39936;51.058;17.220;2023-03-01T12:01:11;41;29;19
54021;PMS7003;39936;51.058;17.220;2023-03-01T12:09:21;37;29;18
54021;PMS7003;39936;51.058;17.220;2023-03-01T12:17:49;50;39;25
54021;PMS7003;39936;51.058;17.220;2023-03-01T12:22:00;44;37;21
54021;PMS7003;39936;51.058;17.220;2023-03-01T12:29:23;43;32;20
54021;PMS7003;39936;51.058;17.220;2023-03-01T12:44:29;36;32;19
54021;PMS7003;39936;51.058;17.220;2023-03-01T12:51:30;34;29;19
54021;PMS7003;39936;51.058;17.220;2023-03-01T12:55:08;34;27;15
54021;PMS7003;39936;51.058;17.220;2023-03-01T13:11:17;33;21;14
54021;PMS7003;39936;51.058;17.220;2023-03-01T13:15:03;26;22;15
54021;PMS7003;39936;51.058;17.220;2023-03-01T13:19:05;29;24;15
54021;PMS7003;39936;51.058;17.220;2023-03-01T13:31:05;28;22;14
54021;PMS7003;39936;51.058;17.220;2023-03-01T13:38:44;26;20;12
54021;PMS7003;39936;51.058;17.220;2023-03-01T13:42:46;27;21;13
54021;PMS7003;39936;51.058;17.220;2023-03-01T13:46:24;27;20;13
54021;PMS7003;39936;51.058;17.220;2023-03-01T13:53:22;22;19;12
54021;PMS7003;39936;51.058;17.220;2023-03-01T13:56:40;18;16;11
54021;PMS7003;39936;51.058;17.220;2023-03-01T14:03:52;22;18;11
54021;PMS7003;39936;51.058;17.220;2023-03-01T14:07:31;20;18;12
54021;PMS7003;39936;51.058;17.220;2023-03-01T14:15:19;26;22;13
54021;PMS7003;39936;51.058;17.220;2023-03-01T14:19:26;22;17;11
54021;PMS7003;39936;51.058;17.220;2023-03-01T14:22:52;25;22;12
54021;PMS7003;39936;51.058;17.220;2023-03-01T14:26:35;26;20;13
54021;PMS7003;39936;51.058;17.220;2023-03-01T14:30:01;24;21;14
54021;PMS7003;39936;51.058;17.220;2023-03-01T14:33:55;24;21;13
54021;PMS7003;39936;51.058;17.220;2023-03-01T14:38:04;30;19;12
54021;PMS7003;39936;51.058;17.220;2023-03-01T14:41:33;25;18;10
54021;PMS7003;39936;51.058;17.220;2023-03-01T14:45:13;23;20;14
54021;PMS7003;39936;51.058;17.220;2023-03-01T14:48:31;24;20;13
54021;PMS7003;39936;51.058;17.220;2023-03-01T14:56:01;24;20;13
54021;PMS7003;39936;51.058;17.220;2023-03-01T15:03:46;28;23;15
54021;PMS7003;39936;51.058;17.220;2023-03-01T15:07:41;28;22;12
54021;PMS7003;39936;51.058;17.220;2023-03-01T15:11:18;20;18;10
54021;PMS7003;39936;51.058;17.220;2023-03-01T15:14:43;22;17;11
54021;PMS7003;39936;51.058;17.220;2023-03-01T15:22:13;28;21;14
54021;PMS7003;39936;51.058;17.220;2023-03-01T15:26:05;21;20;13
54021;PMS7003;39936;51.058;17.220;2023-03-01T15:29:30;19;17;11
54021;PMS7003;39936;51.058;17.220;2023-03-01T15:33:43;25;21;11
54021;PMS7003;39936;51.058;17.220;2023-03-01T15:41:21;30;24;14
54021;PMS7003;39936;51.058;17.220;2023-03-01T15:44:48;23;16;9
54021;PMS7003;39936;51.058;17.220;2023-03-01T15:48:37;25;20;12
54021;PMS7003;39936;51.058;17.220;2023-03-01T15:52:34;30;27;15
54021;PMS7003;39936;51.058;17.220;2023-03-01T15:56:20;30;25;15
54021;PMS7003;39936;51.058;17.220;2023-03-01T16:00:00;40;33;19
54021;PMS7003;39936;51.058;17.220;2023-03-01T16:03:48;28;24;16
54021;PMS7003;39936;51.058;17.220;2023-03-01T16:11:38;22;20;11
54021;PMS7003;39936;51.058;17.220;2023-03-01T16:15:13;23;15;9
54021;PMS7003;39936;51.058;17.220;2023-03-01T16:18:59;26;24;15
54021;PMS7003;39936;51.058;17.220;2023-03-01T16:22:34;63;48;30
54021;PMS7003;39936;51.058;17.220;2023-03-01T16:26:16;63;50;30
54021;PMS7003;39936;51.058;17.220;2023-03-01T16:30:16;65;51;32
54021;PMS7003;39936;51.058;17.220;2023-03-01T16:34:04;57;44;29
54021;PMS7003;39936;51.058;17.220;2023-03-01T16:37:24;56;43;27
54021;PMS7003;39936;51.058;17.220;2023-03-01T16:41:05;72;49;30
54021;PMS7003;39936;51.058;17.220;2023-03-01T16:44:45;448;328;159
54021;PMS7003;39936;51.058;17.220;2023-03-01T16:48:07;182;140;69
54021;PMS7003;39936;51.058;17.220;2023-03-01T16:51:46;67;49;30
54021;PMS7003;39936;51.058;17.220;2023-03-01T16:55:44;72;54;35
54021;PMS7003;39936;51.058;17.220;2023-03-01T17:03:01;57;42;29
54021;PMS7003;39936;51.058;17.220;2023-03-01T17:06:52;74;54;34
54021;PMS7003;39936;51.058;17.220;2023-03-01T17:11:09;113;92;53
54021;PMS7003;39936;51.058;17.220;2023-03-01T17:15:11;70;44;28
54021;PMS7003;39936;51.058;17.220;2023-03-01T17:19:05;54;40;25
54021;PMS7003;39936;51.058;17.220;2023-03-01T17:30:40;81;60;39
54021;PMS7003;39936;51.058;17.220;2023-03-01T17:34:18;78;58;36
54021;PMS7003;39936;51.058;17.220;2023-03-01T17:42:04;65;50;32
54021;PMS7003;39936;51.058;17.220;2023-03-01T17:45:30;58;44;27
54021;PMS7003;39936;51.058;17.220;2023-03-01T17:49:31;63;50;31
54021;PMS7003;39936;51.058;17.220;2023-03-01T17:52:49;53;38;24
54021;PMS7003;39936;51.058;17.220;2023-03-01T17:57:04;51;38;24
54021;PMS7003;39936;51.058;17.220;2023-03-01T18:00:22;60;47;27
54021;PMS7003;39936;51.058;17.220;2023-03-01T18:04:23;61;46;30
54021;PMS7003;39936;51.058;17.220;2023-03-01T18:08:05;57;46;29
54021;PMS7003;39936;51.058;17.220;2023-03-01T18:11:41;53;42;27
54021;PMS7003;39936;51.058;17.220;2023-03-01T18:15:26;64;49;30
54021;PMS7003;39936;51.058;17.220;2023-03-01T18:19:10;53;41;26
54021;PMS7003;39936;51.058;17.220;2023-03-01T18:22:43;60;46;27
54021;PMS7003;39936;51.058;17.220;2023-03-01T18:26:25;73;53;33
54021;PMS7003;39936;51.058;17.220;2023-03-01T18:29:48;83;61;38
54021;PMS7003;39936;51.058;17.220;2023-03-01T18:33:30;98;75;44
54021;PMS7003;39936;51.058;17.220;2023-03-01T18:36:50;101;81;47
54021;PMS7003;39936;51.058;17.220;2023-03-01T18:44:23;85;60;38
54021;PMS7003;39936;51.058;17.220;2023-03-01T18:47:45;76;58;35
54021;PMS7003;39936;51.058;17.220;2023-03-01T18:51:57;93;69;43
54021;PMS7003;39936;51.058;17.220;2023-03-01T18:55:28;89;65;42
54021;PMS7003;39936;51.058;17.220;2023-03-01T18:59:20;75;53;33
54021;PMS7003;39936;51.058;17.220;2023-03-01T19:03:34;87;65;40
54021;PMS7003;39936;51.058;17.220;2023-03-01T19:07:49;94;69;42
54021;PMS7003;39936;51.058;17.220;2023-03-01T19:11:21;88;68;41
54021;PMS7003;39936;51.058;17.220;2023-03-01T19:15:09;88;67;42
54021;PMS7003;39936;51.058;17.220;2023-03-01T19:18:48;98;81;48
54021;PMS7003;39936;51.058;17.220;2023-03-01T19:22:14;99;77;47
54021;PMS7003;39936;51.058;17.220;2023-03-01T19:26:21;93;72;44
54021;PMS7003;39936;51.058;17.220;2023-03-01T19:30:23;100;79;48
54021;PMS7003;39936;51.058;17.220;2023-03-01T19:33:49;95;73;43
54021;PMS7003;39936;51.058;17.220;2023-03-01T19:37:38;94;70;43
54021;PMS7003;39936;51.058;17.220;2023-03-01T19:41:55;105;86;50
54021;PMS7003;39936;51.058;17.220;2023-03-01T19:49:12;104;83;50
54021;PMS7003;39936;51.058;17.220;2023-03-01T19:57:07;99;73;45
54021;PMS7003;39936;51.058;17.220;2023-03-01T20:00:55;95;69;42
54021;PMS7003;39936;51.058;17.220;2023-03-01T20:04:39;122;94;55
54021;PMS7003;39936;51.058;17.220;2023-03-01T20:08:11;100;73;39
54021;PMS7003;39936;51.058;17.220;2023-03-01T20:12:15;109;86;50
54021;PMS7003;39936;51.058;17.220;2023-03-01T20:15:58;92;69;42
54021;PMS7003;39936;51.058;17.220;2023-03-01T20:19:43;189;147;82
54021;PMS7003;39936;51.058;17.220;2023-03-01T20:23:20;202;159;88
54021;PMS7003;39936;51.058;17.220;2023-03-01T20:26:58;210;161;89
54021;PMS7003;39936;51.058;17.220;2023-03-01T20:30:54;171;134;75
54021;PMS7003;39936;51.058;17.220;2023-03-01T20:34:44;137;105;61
54021;PMS7003;39936;51.058;17.220;2023-03-01T20:38:30;112;86;50
54021;PMS7003;39936;51.058;17.220;2023-03-01T20:42:22;108;91;54
54021;PMS7003;39936;51.058;17.220;2023-03-01T20:45:44;120;96;58
54021;PMS7003;39936;51.058;17.220;2023-03-01T20:49:25;119;92;56
54021;PMS7003;39936;51.058;17.220;2023-03-01T20:53:03;124;101;57
54021;PMS7003;39936;51.058;17.220;2023-03-01T20:56:46;131;104;59
54021;PMS7003;39936;51.058;17.220;2023-03-01T21:00:11;128;104;61
54021;PMS7003;39936;51.058;17.220;2023-03-01T21:07:56;116;95;57
54021;PMS7003;39936;51.058;17.220;2023-03-01T21:11:47;131;104;62
54021;PMS7003;39936;51.058;17.220;2023-03-01T21:19:49;119;94;54
54021;PMS7003;39936;51.058;17.220;2023-03-01T21:23:48;129;98;58
54021;PMS7003;39936;51.058;17.220;2023-03-01T21:27:29;106;88;53
54021;PMS7003;39936;51.058;17.220;2023-03-01T21:31:16;100;76;46
54021;PMS7003;39936;51.058;17.220;2023-03-01T21:34:52;93;72;43
54021;PMS7003;39936;51.058;17.220;2023-03-01T21:38:37;97;76;46
54021;PMS7003;39936;51.058;17.220;2023-03-01T21:42:00;98;76;47
54021;PMS7003;39936;51.058;17.220;2023-03-01T21:45:22;102;77;47
54021;PMS7003;39936;51.058;17.220;2023-03-01T21:49:11;99;76;47
54021;PMS7003;39936;51.058;17.220;2023-03-01T21:53:02;126;98;56
54021;PMS7003;39936;51.058;17.220;2023-03-01T21:56:58;128;104;58
54021;PMS7003;39936;51.058;17.220;2023-03-01T22:01:08;116;91;50
54021;PMS7003;39936;51.058;17.220;2023-03-01T22:08:32;103;83;48
54021;PMS7003;39936;51.058;17.220;2023-03-01T22:12:28;115;94;54
54021;PMS7003;39936;51.058;17.220;2023-03-01T22:16:09;99;76;46
54021;PMS7003;39936;51.058;17.220;2023-03-01T22:20:28;110;86;49
54021;PMS7003;39936;51.058;17.220;2023-03-01T22:24:01;99;76;42
54021;PMS7003;39936;51.058;17.220;2023-03-01T22:27:31;96;80;46
54021;PMS7003;39936;51.058;17.220;2023-03-01T22:34:58;145;116;68
54021;PMS7003;39936;51.058;17.220;2023-03-01T22:39:09;133;107;65
54021;PMS7003;39936;51.058;17.220;2023-03-01T22:42:51;111;90;52
54021;PMS7003;39936;51.058;17.220;2023-03-01T22:46:55;105;81;49
54021;PMS7003;39936;51.058;17.220;2023-03-01T22:50:16;117;90;52
54021;PMS7003;39936;51.058;17.220;2023-03-01T22:54:30;108;85;52
54021;PMS7003;39936;51.058;17.220;2023-03-01T22:58:26;121;103;62
54021;PMS7003;39936;51.058;17.220;2023-03-01T23:05:39;106;86;52
54021;PMS7003;39936;51.058;17.220;2023-03-01T23:09:32;125;95;53
54021;PMS7003;39936;51.058;17.220;2023-03-01T23:13:19;120;99;62
54021;PMS7003;39936;51.058;17.220;2023-03-01T23:21:05;118;93;54
54021;PMS7003;39936;51.058;17.220;2023-03-01T23:25:08;100;76;45
54021;PMS7003;39936;51.058;17.220;2023-03-01T23:28:49;103;76;44
54021;PMS7003;39936;51.058;17.220;2023-03-01T23:32:38;98;76;47
54021;PMS7003;39936;51.058;17.220;2023-03-01T23:39:45;122;100;62
54021;PMS7003;39936;51.058;17.220;2023-03-01T23:43:26;101;77;46
54021;PMS7003;39936;51.058;17.220;2023-03-01T23:46:48;86;57;34
54021;PMS7003;39936;51.058;17.220;2023-03-01T23:50:40;91;66;41
54021;PMS7003;39936;51.058;17.220;2023-03-01T23:54:11;86;65;42
54021;PMS7003;39936;51.058;17.220;2023-03-01T23:57:51;79;60;38
